General Aviation Weather

Text Reports

Enter one or more of the following location identifiers separated by a space:

Zip Code, Four-Character ICAO or Three-Character IATA airport codes.

METAR - Aviation Routine Weather Report
KBYH - Blytheville, Arkansas
Updated at 1:51 PM GMT on July 31, 2014 (8:51 AM CDT):
METAR KBYH 311351Z 00000KT 10SM OVC050 22/19 A3010
TAF - Terminal Area Forecast
KBYH - Blytheville, Arkansas
Updated at 1:51 PM GMT on July 31, 2014 (8:51 AM CDT):
No TAF is currently available for this location.
Decoded:
No decoded TAF is available.
PIREP - Pilot Weather Report
KBYH - Blytheville, Arkansas
Updated at 1:51 PM GMT on July 31, 2014 (8:51 AM CDT):
No PIREP is currently available for this location.
AIRMET - Airmens Meteorological Information
KBYH - Blytheville, Arkansas
Updated at 1:51 PM GMT on July 31, 2014 (8:51 AM CDT):
No AIRMET is currently available for this location.
SIGMET - Significant Meteorological Information
KBYH - Blytheville, Arkansas
Updated at 1:51 PM GMT on July 31, 2014 (8:51 AM CDT):
No SIGMET is currently available for this location.
NOTAM - Notice to Airmen
KBYH - Blytheville, Arkansas
Updated at 1:51 PM GMT on July 31, 2014 (8:51 AM CDT):
No NOTAM is currently available for this location.
Forecast Area
KBYH - Blytheville, Arkansas
Updated at 1:51 PM GMT on July 31, 2014 (8:51 AM CDT):
No NOTAM is currently available for this location.
Aviation Weather Maps